Rechercher aéroport 
image banner adimage banner adimage banner ad
image banner ad

92CN - Riverside County Sheriff, Palm Desert Station

Situé à Palm Desert, United States

ICAO - 92CN, IATA -

Données fournies par Airmate  

Information générale

Coordonnées: N33°47'8" W116°22'45"
Élévation : 314 feet MSL.
 
Voir autres Aéroports à California

Données opérationnelles

Special qualification required
Heure actuelle UTC:
Heure actuelle locale:
Météo à : KPSP - Palm Springs Intl ( 13 km )
METAR: KPSP 231353Z 18003KT 10SM CLR 26/12 A2985 RMK AO2 SLP102 T02560122
TAF: KPSP 231125Z 2312/2412 30004KT P6SM BKN120 FM232000 11007KT P6SM SCT100 FM240300 32007KT P6SM SCT100
Voir NOTAMs / SUP AIP / TFR affectant cet aéroport [VIEW]
Fréquences de communication: [VIEW]

Pistes:

Coordonnées de l'aéroport

Adresse: Palm Desert United States

Vue satellite de 92CN